Time;durP1;ratioP1;P1;durP2;ratioP2;P2;SDS_P1;SDS_P2;PMS_P1;PMS_P2;Temp;Humidity;BMP_temperature;BMP_pressure;BME280_temperature;BME280_humidity;BME280_pressure;Samples;Min_cycle;Max_cycle;Signal;HPM_P1;HPM_P2
2022/08/20 00:00:36;;;;;;;12.27;10.57;;;;;;;-150.27;100.00;61272.81;5271979;28;20029;-75
2022/08/20 00:03:28;;;;;;;12.00;10.52;;;;;;;-150.27;100.00;61272.81;5271957;28;20366;-75
2022/08/20 00:06:11;;;;;;;12.18;10.93;;;;;;;-150.27;100.00;61272.81;5254127;28;20515;-75
2022/08/20 00:08:43;;;;;;;10.93;9.55;;;;;;;-150.27;100.00;61272.81;5270805;28;20055;-75
2022/08/20 00:11:20;;;;;;;12.33;11.03;;;;;;;-150.27;100.00;61272.81;5271613;28;20025;-76
2022/08/20 00:13:56;;;;;;;11.98;10.80;;;;;;;-150.27;100.00;61272.81;5271552;28;20036;-75
2022/08/20 00:16:31;;;;;;;12.23;10.77;;;;;;;-150.27;100.00;61272.81;5271832;28;20021;-75
2022/08/20 00:19:06;;;;;;;15.98;10.77;;;;;;;-150.27;100.00;61272.81;5271355;28;20025;-75
2022/08/20 00:21:38;;;;;;;14.05;11.30;;;;;;;-150.27;100.00;61272.81;5271594;28;20020;-75
2022/08/20 00:24:09;;;;;;;12.45;11.15;;;;;;;-150.27;100.00;61272.81;5270213;28;20035;-75
2022/08/20 00:26:41;;;;;;;13.13;11.18;;;;;;;-150.27;100.00;61272.81;5255886;28;20021;-75
2022/08/20 00:29:12;;;;;;;17.77;11.37;;;;;;;-150.27;100.00;61272.81;5274007;28;20036;-75
2022/08/20 00:31:43;;;;;;;12.10;10.82;;;;;;;-150.27;100.00;61272.81;5271093;28;20025;-74
2022/08/20 00:34:14;;;;;;;13.15;10.90;;;;;;;-150.27;100.00;61272.81;5253612;28;20130;-76
2022/08/20 00:36:46;;;;;;;13.45;10.10;;;;;;;-150.27;100.00;61272.81;5271443;28;20389;-75
2022/08/20 00:39:17;;;;;;;12.68;11.38;;;;;;;-150.27;100.00;61272.81;5270684;28;20454;-75
2022/08/20 00:41:50;;;;;;;12.90;11.02;;;;;;;-150.27;100.00;61272.81;5275554;28;20027;-75
2022/08/20 00:44:22;;;;;;;16.40;10.43;;;;;;;-150.27;100.00;61272.81;5257909;28;20533;-73
2022/08/20 00:46:54;;;;;;;13.38;10.40;;;;;;;-150.27;100.00;61272.81;5275772;28;20108;-75
2022/08/20 00:49:31;;;;;;;12.27;11.10;;;;;;;-150.27;100.00;61272.81;5275638;28;20028;-75
2022/08/20 00:52:10;;;;;;;12.90;11.60;;;;;;;-150.27;100.00;61272.81;5275668;28;20111;-75
2022/08/20 00:54:52;;;;;;;15.40;11.20;;;;;;;-150.27;100.00;61272.81;5256991;28;20120;-75
2022/08/20 00:57:35;;;;;;;12.73;11.25;;;;;;;-150.27;100.00;61272.81;5257587;28;20024;-75
2022/08/20 01:00:13;;;;;;;11.87;10.77;;;;;;;-150.27;100.00;61272.81;5276020;28;20107;-75
2022/08/20 01:02:46;;;;;;;11.55;10.38;;;;;;;-150.27;100.00;61272.81;5275423;28;20790;-75
2022/08/20 01:05:17;;;;;;;11.35;10.25;;;;;;;-150.27;100.00;61272.81;5257272;28;20587;-75
2022/08/20 01:07:52;;;;;;;11.55;10.45;;;;;;;-150.27;100.00;61272.81;5256168;28;20134;-75
2022/08/20 01:10:28;;;;;;;12.18;10.00;;;;;;;-150.27;100.00;61272.81;5288069;22;20845;-76
2022/08/20 01:13:07;;;;;;;11.75;10.52;;;;;;;-150.27;100.00;61272.81;5275904;28;20031;-75
2022/08/20 01:15:41;;;;;;;13.20;10.10;;;;;;;-150.27;100.00;61272.81;5275126;28;20032;-75
2022/08/20 01:18:15;;;;;;;;;;;;;;;-150.27;100.00;61272.81;5275340;28;20016;-76
2022/08/20 01:20:59;;;;;;;15.23;11.90;;;;;;;-150.27;100.00;61272.81;5275868;28;20304;-75
2022/08/20 01:23:42;;;;;;;13.20;10.75;;;;;;;-150.27;100.00;61272.81;5277648;28;20086;-75
2022/08/20 01:26:31;;;;;;;14.00;11.80;;;;;;;-150.27;100.00;61272.81;5274679;28;20048;-74
2022/08/20 01:29:28;;;;;;;12.73;11.23;;;;;;;-150.27;100.00;61272.81;5257283;28;20382;-75
2022/08/20 01:32:01;;;;;;;14.07;12.38;;;;;;;-150.27;100.00;61272.81;5265419;28;20119;-75
2022/08/20 01:34:32;;;;;;;17.42;13.27;;;;;;;-150.27;100.00;61272.81;5273294;28;20362;-75
2022/08/20 01:37:03;;;;;;;17.30;12.88;;;;;;;-150.27;100.00;61272.81;5274589;28;20089;-75
2022/08/20 01:39:35;;;;;;;17.20;13.87;;;;;;;-150.27;100.00;61272.81;5273649;28;20020;-76
2022/08/20 01:42:16;;;;;;;13.75;12.52;;;;;;;-150.27;100.00;61272.81;5256230;28;20037;-75
2022/08/20 01:44:49;;;;;;;17.50;12.83;;;;;;;-150.27;100.00;61272.81;5256816;28;20028;-75
2022/08/20 01:47:25;;;;;;;17.57;13.80;;;;;;;-150.27;100.00;61272.81;5274096;28;20032;-76
2022/08/20 01:50:14;;;;;;;17.97;14.30;;;;;;;-150.27;100.00;61272.81;5273988;28;20047;-76
2022/08/20 01:53:05;;;;;;;15.27;13.67;;;;;;;-150.27;100.00;61272.81;5254309;28;20068;-75
2022/08/20 01:55:37;;;;;;;14.98;13.27;;;;;;;-150.27;100.00;61272.81;5273915;28;20036;-76
2022/08/20 01:58:09;;;;;;;15.27;13.65;;;;;;;-150.27;100.00;61272.81;5274543;28;20523;-75
2022/08/20 02:00:41;;;;;;;17.80;12.87;;;;;;;-150.27;100.00;61272.81;5273731;28;20025;-75
2022/08/20 02:03:12;;;;;;;18.00;14.63;;;;;;;-150.27;100.00;61272.81;5272845;28;20124;-75
2022/08/20 02:05:44;;;;;;;18.08;13.40;;;;;;;-150.27;100.00;61272.81;5273739;28;20552;-76
2022/08/20 02:08:15;;;;;;;20.03;14.83;;;;;;;-150.27;100.00;61272.81;5272986;28;20033;-75
2022/08/20 02:10:47;;;;;;;18.13;15.00;;;;;;;-150.27;100.00;61272.81;5273930;28;20101;-77
2022/08/20 02:13:19;;;;;;;18.43;14.63;;;;;;;-150.27;100.00;61272.81;5273353;28;20025;-75
2022/08/20 02:15:50;;;;;;;16.63;14.27;;;;;;;-150.27;100.00;61272.81;5273897;28;20023;-75
2022/08/20 02:18:21;;;;;;;20.38;15.45;;;;;;;-150.27;100.00;61272.81;5255406;28;20024;-75
2022/08/20 02:20:53;;;;;;;22.17;16.07;;;;;;;-150.27;100.00;61272.81;5274212;28;20507;-75
2022/08/20 02:23:24;;;;;;;19.08;15.32;;;;;;;-150.27;100.00;61272.81;5254711;28;20063;-76
2022/08/20 02:25:56;;;;;;;18.25;15.60;;;;;;;-150.27;100.00;61272.81;5256074;28;20024;-75
2022/08/20 02:28:27;;;;;;;18.83;15.17;;;;;;;-150.27;100.00;61272.81;5273528;28;20060;-75
2022/08/20 02:31:00;;;;;;;20.90;14.83;;;;;;;-150.27;100.00;61272.81;5273237;28;20075;-75
2022/08/20 02:33:31;;;;;;;19.97;15.10;;;;;;;-150.27;100.00;61272.81;5273643;28;20024;-76
2022/08/20 02:36:03;;;;;;;23.02;14.18;;;;;;;-150.27;100.00;61272.81;5273093;28;20677;-75
2022/08/20 02:38:34;;;;;;;21.03;13.80;;;;;;;-150.27;100.00;61272.81;5272373;28;20416;-75
2022/08/20 02:41:07;;;;;;;21.90;13.60;;;;;;;-150.27;100.00;61272.81;5273064;28;20031;-75
2022/08/20 02:43:38;;;;;;;25.87;14.10;;;;;;;-150.27;100.00;61272.81;5273032;28;20742;-76
2022/08/20 02:46:09;;;;;;;25.35;15.55;;;;;;;-150.27;100.00;61272.81;5255513;28;20024;-76
2022/08/20 02:48:41;;;;;;;20.57;13.30;;;;;;;-150.27;100.00;61272.81;5272383;28;20017;-75
2022/08/20 02:51:12;;;;;;;23.20;15.50;;;;;;;-150.27;100.00;61272.81;5273191;28;20048;-76
2022/08/20 02:53:44;;;;;;;19.75;14.07;;;;;;;-150.27;100.00;61272.81;5271497;28;20048;-76
2022/08/20 02:56:15;;;;;;;19.70;15.67;;;;;;;-150.27;100.00;61272.81;5272918;28;20658;-76
2022/08/20 02:58:47;;;;;;;20.33;15.57;;;;;;;-150.27;100.00;61272.81;5272706;28;20048;-76
2022/08/20 03:01:19;;;;;;;25.27;16.23;;;;;;;-150.27;100.00;61272.81;5255365;28;20025;-75
2022/08/20 03:03:50;;;;;;;23.20;16.63;;;;;;;-150.27;100.00;61272.81;5273183;28;20483;-75
2022/08/20 03:06:22;;;;;;;25.63;19.35;;;;;;;-150.27;100.00;61272.81;5272660;28;20028;-75
2022/08/20 03:08:54;;;;;;;28.13;18.90;;;;;;;-150.27;100.00;61272.81;5253991;28;20020;-75
2022/08/20 03:11:25;;;;;;;25.40;19.83;;;;;;;-150.27;100.00;61272.81;5272426;28;20027;-75
2022/08/20 03:13:58;;;;;;;25.93;19.47;;;;;;;-150.27;100.00;61272.81;5273370;28;20045;-75
2022/08/20 03:16:29;;;;;;;27.37;20.50;;;;;;;-150.27;100.00;61272.81;5272565;28;20170;-76
2022/08/20 03:19:01;;;;;;;24.53;20.30;;;;;;;-150.27;100.00;61272.81;5272859;28;20044;-76
2022/08/20 03:21:32;;;;;;;26.50;20.63;;;;;;;-150.27;100.00;61272.81;5272682;28;20078;-75
2022/08/20 03:24:04;;;;;;;28.43;20.27;;;;;;;-150.27;100.00;61272.81;5253311;28;20131;-75
2022/08/20 03:26:35;;;;;;;24.15;18.95;;;;;;;-150.27;100.00;61272.81;5272446;28;20395;-75
2022/08/20 03:29:07;;;;;;;28.53;20.77;;;;;;;-150.27;100.00;61272.81;5272220;28;20469;-75
2022/08/20 03:31:38;;;;;;;25.80;18.23;;;;;;;-150.27;100.00;61272.81;5272471;28;20024;-75
2022/08/20 03:34:10;;;;;;;26.00;19.70;;;;;;;-150.27;100.00;61272.81;5272963;28;20096;-75
2022/08/20 03:36:41;;;;;;;23.40;18.50;;;;;;;-150.27;100.00;61272.81;5272060;28;20491;-75
2022/08/20 03:39:14;;;;;;;23.83;17.53;;;;;;;-150.27;100.00;61272.81;5271727;28;20027;-75
2022/08/20 03:41:45;;;;;;;27.77;19.03;;;;;;;-150.27;100.00;61272.81;5271990;28;20038;-76
2022/08/20 03:44:17;;;;;;;28.77;17.10;;;;;;;-150.27;100.00;61272.81;5272114;28;20020;-75
2022/08/20 03:46:48;;;;;;;27.73;16.93;;;;;;;-150.27;100.00;61272.81;5268689;28;20039;-75
2022/08/20 03:49:20;;;;;;;26.90;17.80;;;;;;;-150.27;100.00;61272.81;5272292;28;20028;-76
2022/08/20 03:51:51;;;;;;;27.03;17.00;;;;;;;-150.27;100.00;61272.81;5255681;28;20029;-76
2022/08/20 03:54:22;;;;;;;25.40;16.23;;;;;;;-150.27;100.00;61272.81;5250574;28;20488;-75
2022/08/20 03:56:53;;;;;;;26.73;17.17;;;;;;;-150.27;100.00;61272.81;5235957;28;20024;-75
2022/08/20 03:59:25;;;;;;;26.00;16.07;;;;;;;-150.27;100.00;61272.81;5251258;28;20114;-76
2022/08/20 04:01:56;;;;;;;25.73;16.17;;;;;;;-150.27;100.00;61272.81;5253307;28;20111;-76
2022/08/20 04:04:27;;;;;;;27.90;17.00;;;;;;;-150.27;100.00;61272.81;5250607;28;20396;-76
2022/08/20 04:06:59;;;;;;;21.73;15.67;;;;;;;-150.27;100.00;61272.81;5233190;28;20036;-75
2022/08/20 04:09:30;;;;;;;28.63;15.97;;;;;;;-150.27;100.00;61272.81;5249768;28;20657;-75
2022/08/20 04:12:01;;;;;;;23.13;16.00;;;;;;;-150.27;100.00;61272.81;5254707;28;20044;-76
2022/08/20 04:14:35;;;;;;;34.33;17.03;;;;;;;-150.27;100.00;61272.81;5252615;28;20392;-76
2022/08/20 04:17:08;;;;;;;21.23;16.30;;;;;;;-150.27;100.00;61272.81;5255197;28;20025;-75
2022/08/20 04:19:40;;;;;;;25.55;16.63;;;;;;;-150.27;100.00;61272.81;5237933;28;20379;-75
2022/08/20 04:22:12;;;;;;;28.57;17.97;;;;;;;-150.27;100.00;61272.81;5236335;28;20025;-76
2022/08/20 04:24:44;;;;;;;26.13;17.97;;;;;;;-150.27;100.00;61272.81;5254569;28;20507;-76
2022/08/20 04:27:15;;;;;;;30.47;19.43;;;;;;;-150.27;100.00;61272.81;5237025;28;20109;-76
2022/08/20 04:29:47;;;;;;;26.03;19.53;;;;;;;-150.27;100.00;61272.81;5255347;28;20126;-76
2022/08/20 04:32:20;;;;;;;32.27;20.17;;;;;;;-150.27;100.00;61272.81;5237014;28;20028;-75
2022/08/20 04:34:51;;;;;;;32.97;21.90;;;;;;;-150.27;100.00;61272.81;5255238;28;20023;-75
2022/08/20 04:37:22;;;;;;;32.53;22.20;;;;;;;-150.27;100.00;61272.81;5253903;28;20590;-75
2022/08/20 04:42:44;;;;;;;35.73;26.60;;;;;;;-150.27;100.00;61272.81;5253922;28;20037;-75
2022/08/20 04:45:15;;;;;;;34.27;26.80;;;;;;;-150.27;100.00;61272.81;5254733;28;20033;-76
2022/08/20 04:47:48;;;;;;;35.50;27.50;;;;;;;-150.27;100.00;61272.81;5254895;28;20067;-76
2022/08/20 04:50:20;;;;;;;31.20;25.87;;;;;;;-150.27;100.00;61272.81;5236318;28;20048;-76
2022/08/20 04:52:52;;;;;;;30.60;26.20;;;;;;;-150.27;100.00;61272.81;5253976;28;20029;-75
2022/08/20 04:55:23;;;;;;;37.07;26.70;;;;;;;-150.27;100.00;61272.81;5254039;28;20016;-75
2022/08/20 04:57:56;;;;;;;32.27;28.07;;;;;;;-150.27;100.00;61272.81;5255002;28;20025;-75
2022/08/20 05:00:28;;;;;;;36.80;27.65;;;;;;;-150.27;100.00;61272.81;5254133;28;20413;-76
2022/08/20 05:02:59;;;;;;;34.60;28.83;;;;;;;-150.27;100.00;61272.81;5254815;28;20116;-75
2022/08/20 05:05:30;;;;;;;36.03;28.23;;;;;;;-150.27;100.00;61272.81;5236155;28;20029;-76
2022/08/20 05:08:02;;;;;;;36.90;28.57;;;;;;;-150.27;100.00;61272.81;5253765;28;20060;-76
2022/08/20 05:10:37;;;;;;;40.43;29.73;;;;;;;-150.27;100.00;61272.81;5254038;28;20049;-76
2022/08/20 05:13:08;;;;;;;;;;;;;;;-150.27;100.00;61272.81;5254546;28;20055;-75
2022/08/20 05:15:39;;;;;;;34.07;26.17;;;;;;;-150.27;100.00;61272.81;5254387;28;19913;-76
2022/08/20 05:18:11;;;;;;;43.07;29.40;;;;;;;-150.27;100.00;61272.81;5236301;28;20036;-76
2022/08/20 05:20:43;;;;;;;38.97;29.53;;;;;;;-150.27;100.00;61272.81;5253945;28;20539;-76
2022/08/20 05:23:17;;;;;;;37.53;28.27;;;;;;;-150.27;100.00;61272.81;5252669;28;20029;-75
2022/08/20 05:25:50;;;;;;;34.10;27.37;;;;;;;-150.27;100.00;61272.81;5253936;28;20431;-76
2022/08/20 05:28:24;;;;;;;40.67;29.07;;;;;;;-150.27;100.00;61272.81;5257052;28;20812;-75
2022/08/20 05:30:55;;;;;;;44.33;26.80;;;;;;;-150.27;100.00;61272.81;5255627;28;20029;-76
2022/08/20 05:33:28;;;;;;;34.33;26.43;;;;;;;-150.27;100.00;61272.81;5257131;28;20035;-76
2022/08/20 05:36:00;;;;;;;35.03;26.10;;;;;;;-150.27;100.00;61272.81;5273246;28;20029;-76
2022/08/20 05:38:33;;;;;;;42.27;28.13;;;;;;;-150.27;100.00;61272.81;5274106;28;20027;-75
2022/08/20 05:41:05;;;;;;;34.77;26.20;;;;;;;-150.27;100.00;61272.81;5274274;28;20029;-76
2022/08/20 05:43:36;;;;;;;32.10;26.93;;;;;;;-150.27;100.00;61272.81;5279502;28;20035;-76
2022/08/20 05:46:07;;;;;;;38.27;28.67;;;;;;;-150.27;100.00;61272.81;5274509;28;20032;-76
2022/08/20 05:48:38;;;;;;;38.20;30.13;;;;;;;-150.27;100.00;61272.81;5274441;28;20060;-75
2022/08/20 05:51:10;;;;;;;45.80;29.57;;;;;;;-150.27;100.00;61272.81;5274367;28;20029;-76
2022/08/20 05:53:41;;;;;;;44.47;29.17;;;;;;;-150.27;100.00;61272.81;5273064;28;20029;-75
2022/08/20 05:56:12;;;;;;;40.90;28.43;;;;;;;-150.27;100.00;61272.81;5276293;28;20036;-75
2022/08/20 05:58:44;;;;;;;47.13;30.67;;;;;;;-150.27;100.00;61272.81;5276451;28;20032;-76
2022/08/20 06:01:15;;;;;;;38.90;30.57;;;;;;;-150.27;100.00;61272.81;5274466;28;20487;-76
2022/08/20 06:06:36;;;;;;;41.03;30.63;;;;;;;-150.27;100.00;61272.81;5259429;28;20557;-75
2022/08/20 06:09:07;;;;;;;54.87;32.27;;;;;;;-150.27;100.00;61272.81;5272718;28;20025;-76
2022/08/20 06:11:39;;;;;;;39.30;31.73;;;;;;;-150.27;100.00;61272.81;5273903;28;20043;-76
2022/08/20 06:14:10;;;;;;;46.33;30.23;;;;;;;-150.27;100.00;61272.81;5274076;28;20107;-76
2022/08/20 06:16:42;;;;;;;46.07;32.37;;;;;;;-150.27;100.00;61272.81;5273816;28;20031;-76
2022/08/20 06:19:14;;;;;;;45.60;31.53;;;;;;;-150.27;100.00;61272.81;5273574;28;20051;-76
2022/08/20 06:21:45;;;;;;;50.23;30.73;;;;;;;-150.27;100.00;61272.81;5273496;28;20032;-76
2022/08/20 06:24:16;;;;;;;48.33;32.50;;;;;;;-150.27;100.00;61272.81;5271563;28;20025;-77
2022/08/20 06:26:57;;;;;;;47.97;31.50;;;;;;;-150.27;100.00;61272.81;5273589;28;20027;-76
2022/08/20 06:29:29;;;;;;;41.37;31.47;;;;;;;-150.27;100.00;61272.81;5273395;28;20090;-76
2022/08/20 06:32:00;;;;;;;48.67;32.10;;;;;;;-150.27;100.00;61272.81;5273445;28;20038;-76
2022/08/20 06:34:31;;;;;;;39.23;31.03;;;;;;;-150.27;100.00;61272.81;5273234;28;20773;-73
2022/08/20 06:37:14;;;;;;;47.97;32.53;;;;;;;-150.27;100.00;61272.81;5272248;28;20032;-73
2022/08/20 06:39:45;;;;;;;53.43;33.63;;;;;;;-150.27;100.00;61272.81;5273329;28;20588;-73
2022/08/20 06:42:18;;;;;;;45.47;34.13;;;;;;;-150.27;100.00;61272.81;5272488;28;20055;-74
2022/08/20 06:44:50;;;;;;;41.20;31.20;;;;;;;-150.27;100.00;61272.81;5273616;28;20031;-74
2022/08/20 06:47:21;;;;;;;48.03;34.47;;;;;;;-150.27;100.00;61272.81;5272815;28;20113;-74
2022/08/20 06:49:52;;;;;;;43.60;33.33;;;;;;;-150.27;100.00;61272.81;5273158;28;20016;-73
2022/08/20 06:52:24;;;;;;;46.60;33.03;;;;;;;-150.27;100.00;61272.81;5272226;28;20024;-73
2022/08/20 06:54:55;;;;;;;45.23;33.40;;;;;;;-150.27;100.00;61272.81;5254859;28;20020;-74
2022/08/20 06:57:26;;;;;;;48.20;33.50;;;;;;;-150.27;100.00;61272.81;5273021;28;20612;-74
2022/08/20 06:59:58;;;;;;;46.60;35.50;;;;;;;-150.27;100.00;61272.81;5272920;28;20034;-73
2022/08/20 07:02:30;;;;;;;52.40;36.10;;;;;;;-150.27;100.00;61272.81;5264408;28;20432;-73
2022/08/20 07:05:03;;;;;;;54.03;36.33;;;;;;;-150.27;100.00;61272.81;5251986;28;20028;-73
2022/08/20 07:07:36;;;;;;;42.63;34.75;;;;;;;-150.27;100.00;61272.81;5233275;28;20159;-73
2022/08/20 07:10:10;;;;;;;42.97;34.73;;;;;;;-150.27;100.00;61272.81;5258496;28;20052;-73
2022/08/20 07:12:41;;;;;;;49.25;35.25;;;;;;;-150.27;100.00;61272.81;5272198;28;20036;-73
2022/08/20 07:15:13;;;;;;;47.53;35.23;;;;;;;-150.27;100.00;61272.81;5267896;28;20028;-73
2022/08/20 07:17:54;;;;;;;45.73;36.50;;;;;;;-150.27;100.00;61272.81;5244295;28;20028;-73
2022/08/20 07:20:27;;;;;;;51.13;37.50;;;;;;;-150.27;100.00;61272.81;5261231;28;20013;-73
2022/08/20 07:22:59;;;;;;;45.27;34.37;;;;;;;-150.27;100.00;61272.81;5263332;28;20054;-73
2022/08/20 07:25:32;;;;;;;48.57;37.27;;;;;;;-150.27;100.00;61272.81;5247245;28;20021;-74
2022/08/20 07:28:07;;;;;;;44.80;36.07;;;;;;;-150.27;100.00;61272.81;5284356;28;20393;-76
2022/08/20 07:33:29;;;;;;;46.27;33.93;;;;;;;-150.27;100.00;61272.81;5264687;28;20068;-76
2022/08/20 07:36:03;;;;;;;40.47;32.27;;;;;;;-150.27;100.00;61272.81;5265737;28;20056;-74
2022/08/20 07:38:36;;;;;;;42.60;32.70;;;;;;;-150.27;100.00;61272.81;5267233;28;20027;-77
2022/08/20 07:41:12;;;;;;;48.30;33.67;;;;;;;-150.27;100.00;61272.81;5268749;28;20025;-78
2022/08/20 07:43:46;;;;;;;48.17;33.77;;;;;;;-150.27;100.00;61272.81;5285714;28;20757;-75
2022/08/20 07:46:20;;;;;;;43.30;33.10;;;;;;;-150.27;100.00;61272.81;5276539;28;20021;-76
2022/08/20 07:48:51;;;;;;;43.72;32.17;;;;;;;-150.27;100.00;61272.81;5269411;28;20661;-74
2022/08/20 07:51:22;;;;;;;40.00;33.00;;;;;;;-150.27;100.00;61272.81;5270557;28;20112;-75
2022/08/20 07:53:56;;;;;;;38.83;31.10;;;;;;;-150.27;100.00;61272.81;5270867;28;20054;-75
2022/08/20 07:56:28;;;;;;;;;;;;;;;-150.27;100.00;61272.81;5279131;28;20024;-73
2022/08/20 07:59:01;;;;;;;37.90;27.00;;;;;;;-150.27;100.00;61272.81;5266333;28;20404;-81
2022/08/20 08:01:32;;;;;;;34.72;26.55;;;;;;;-150.27;100.00;61272.81;5267413;28;20021;-77
2022/08/20 08:04:03;;;;;;;41.33;27.15;;;;;;;-150.27;100.00;61272.81;5251830;28;20023;-79
2022/08/20 08:06:34;;;;;;;30.63;23.90;;;;;;;-150.27;100.00;61272.81;5270175;28;20017;-76
2022/08/20 08:09:10;;;;;;;29.30;22.20;;;;;;;-150.27;100.00;61272.81;5247248;28;20021;-75
2022/08/20 08:11:49;;;;;;;24.67;20.23;;;;;;;-150.27;100.00;61272.81;5269141;28;20028;-77
2022/08/20 08:14:25;;;;;;;18.95;16.92;;;;;;;-150.27;100.00;61272.81;5267730;28;20074;-78
2022/08/20 08:17:00;;;;;;;27.92;19.00;;;;;;;-150.27;100.00;61272.81;5275999;28;20064;-76
2022/08/20 08:19:37;;;;;;;18.92;16.80;;;;;;;-150.27;100.00;61272.81;5270357;28;20510;-77
2022/08/20 08:22:12;;;;;;;20.95;17.23;;;;;;;-150.27;100.00;61272.81;5271902;28;20032;-78
2022/08/20 08:24:46;;;;;;;23.15;16.92;;;;;;;-150.27;100.00;61272.81;5253219;28;20029;-78
2022/08/20 08:27:17;;;;;;;19.50;12.55;;;;;;;-150.27;100.00;61272.81;5266883;28;20021;-77
2022/08/20 08:29:48;;;;;;;21.23;13.65;;;;;;;-150.27;100.00;61272.81;5275130;28;20085;-79
2022/08/20 08:32:19;;;;;;;19.98;14.52;;;;;;;-150.27;100.00;61272.81;5276854;28;20065;-78
2022/08/20 08:34:51;;;;;;;16.27;13.68;;;;;;;-150.27;100.00;61272.81;5257251;28;20032;-76
2022/08/20 08:37:22;;;;;;;16.88;12.75;;;;;;;-150.27;100.00;61272.81;5257139;28;20808;-79
2022/08/20 08:39:54;;;;;;;16.42;10.50;;;;;;;-150.27;100.00;61272.81;5268677;28;20056;-80
2022/08/20 08:42:34;;;;;;;13.27;9.20;;;;;;;-150.27;100.00;61272.81;5264924;28;20024;-76
2022/08/20 08:45:09;;;;;;;14.38;9.65;;;;;;;-150.27;100.00;61272.81;5264942;28;20028;-75
2022/08/20 08:47:42;;;;;;;13.27;9.65;;;;;;;-150.27;100.00;61272.81;5258663;28;20619;-75
2022/08/20 08:50:24;;;;;;;12.07;10.35;;;;;;;-150.27;100.00;61272.81;5262447;28;20488;-76
2022/08/20 08:52:59;;;;;;;16.98;10.40;;;;;;;-150.27;100.00;61272.81;5256990;28;20108;-80
2022/08/20 08:55:31;;;;;;;13.38;10.32;;;;;;;-150.27;100.00;61272.81;5263213;28;20648;-78
2022/08/20 08:58:02;;;;;;;12.68;9.20;;;;;;;-150.27;100.00;61272.81;5262081;28;20025;-79
2022/08/20 09:00:35;;;;;;;17.77;11.27;;;;;;;-150.27;100.00;61272.81;5263115;28;20021;-79
2022/08/20 09:03:15;;;;;;;17.40;10.68;;;;;;;-150.27;100.00;61272.81;5262185;28;20653;-80
2022/08/20 09:05:47;;;;;;;13.23;8.25;;;;;;;-150.27;100.00;61272.81;5275338;28;20032;-77
2022/08/20 09:08:46;;;;;;;15.98;6.68;;;;;;;-150.27;100.00;61272.81;5274504;28;20504;-77
2022/08/20 09:11:20;;;;;;;13.82;5.63;;;;;;;-150.27;100.00;61272.81;5254216;28;20087;-76
2022/08/20 09:13:55;;;;;;;12.40;6.00;;;;;;;-150.27;100.00;61272.81;5246634;28;20032;-77
2022/08/20 09:16:27;;;;;;;12.65;6.10;;;;;;;-150.27;100.00;61272.81;5270799;28;20028;-77
2022/08/20 09:18:59;;;;;;;11.60;5.72;;;;;;;-150.27;100.00;61272.81;5281610;28;20016;-79
2022/08/20 09:21:30;;;;;;;11.60;5.43;;;;;;;-150.27;100.00;61272.81;5281742;28;20024;-78
2022/08/20 09:24:01;;;;;;;12.32;5.55;;;;;;;-150.27;100.00;61272.81;5282486;28;20056;-79
2022/08/20 09:26:33;;;;;;;13.30;5.45;;;;;;;-150.27;100.00;61272.81;5268213;28;20421;-79
2022/08/20 09:29:04;;;;;;;15.02;7.25;;;;;;;-150.27;100.00;61272.81;5287872;28;20023;-77
2022/08/20 09:31:36;;;;;;;15.35;5.93;;;;;;;-150.27;100.00;61272.81;5288982;28;20505;-78
2022/08/20 09:34:07;;;;;;;10.43;5.43;;;;;;;-150.27;100.00;61272.81;5277980;28;20399;-79
2022/08/20 09:36:38;;;;;;;7.95;4.00;;;;;;;-150.27;100.00;61272.81;5275137;28;20052;-80
2022/08/20 09:39:11;;;;;;;9.18;4.30;;;;;;;-150.27;100.00;61272.81;5263120;28;20027;-81
2022/08/20 09:41:42;;;;;;;15.10;5.90;;;;;;;-150.27;100.00;61272.81;5278688;28;20020;-81
2022/08/20 09:44:15;;;;;;;10.93;5.40;;;;;;;-150.27;100.00;61272.81;5284605;28;20032;-81
2022/08/20 09:46:46;;;;;;;9.85;5.32;;;;;;;-150.27;100.00;61272.81;5288374;28;20073;-80
2022/08/20 09:49:17;;;;;;;6.60;4.70;;;;;;;-150.27;100.00;61272.81;5277341;28;20472;-82
2022/08/20 09:51:49;;;;;;;13.13;4.85;;;;;;;-150.27;100.00;61272.81;5288005;28;20024;-80
2022/08/20 09:54:21;;;;;;;8.60;5.55;;;;;;;-150.27;100.00;61272.81;5278159;28;20028;-81
2022/08/20 09:56:52;;;;;;;11.48;5.68;;;;;;;-150.27;100.00;61272.81;5285858;28;20481;-81
2022/08/20 09:59:24;;;;;;;9.93;4.53;;;;;;;-150.27;100.00;61272.81;5271710;28;20500;-81
2022/08/20 10:01:56;;;;;;;9.48;4.10;;;;;;;-150.27;100.00;61272.81;5273979;28;20536;-81
2022/08/20 10:04:27;;;;;;;11.25;3.83;;;;;;;-150.27;100.00;61272.81;5274355;28;20032;-80
2022/08/20 10:06:58;;;;;;;9.32;4.25;;;;;;;-150.27;100.00;61272.81;5271582;28;20025;-83
2022/08/20 10:09:32;;;;;;;9.00;3.88;;;;;;;-150.27;100.00;61272.81;5274825;28;20048;-83
2022/08/20 10:12:04;;;;;;;10.80;3.80;;;;;;;-150.27;100.00;61272.81;5271601;28;20493;-82
2022/08/20 10:14:35;;;;;;;6.95;2.90;;;;;;;-150.27;100.00;61272.81;5273981;28;20111;-83
2022/08/20 10:17:07;;;;;;;9.57;2.85;;;;;;;-150.27;100.00;61272.81;5256110;28;20684;-82
2022/08/20 10:19:38;;;;;;;11.57;3.63;;;;;;;-150.27;100.00;61272.81;5273189;28;20025;-82
2022/08/20 10:22:10;;;;;;;7.35;3.70;;;;;;;-150.27;100.00;61272.81;5272769;28;20074;-81
2022/08/20 10:24:41;;;;;;;9.23;4.85;;;;;;;-150.27;100.00;61272.81;5273452;28;20024;-75
2022/08/20 10:27:13;;;;;;;9.23;4.38;;;;;;;-150.27;100.00;61272.81;5273830;28;20020;-75
2022/08/20 10:29:44;;;;;;;7.07;3.40;;;;;;;-150.27;100.00;61272.81;5254437;28;20262;-82
2022/08/20 10:32:16;;;;;;;11.32;3.78;;;;;;;-150.27;100.00;61272.81;5277558;28;20080;-82
2022/08/20 10:34:47;;;;;;;10.50;3.83;;;;;;;-150.27;100.00;61272.81;5275039;28;20472;-83
2022/08/20 10:37:22;;;;;;;9.70;3.40;;;;;;;-150.27;100.00;61272.81;5272447;28;20024;-82
2022/08/20 10:39:53;;;;;;;10.45;4.20;;;;;;;-150.27;100.00;61272.81;5255583;28;20020;-83
2022/08/20 10:42:24;;;;;;;11.60;4.18;;;;;;;-150.27;100.00;61272.81;5273320;28;20032;-83
2022/08/20 10:44:56;;;;;;;12.38;4.28;;;;;;;-150.27;100.00;61272.81;5273184;28;20067;-82
2022/08/20 10:47:30;;;;;;;8.77;3.38;;;;;;;-150.27;100.00;61272.81;5273253;28;20017;-83
2022/08/20 10:50:04;;;;;;;9.40;3.58;;;;;;;-150.27;100.00;61272.81;5273059;28;20024;-83
2022/08/20 10:52:35;;;;;;;9.75;4.07;;;;;;;-150.27;100.00;61272.81;5272013;28;20554;-82
2022/08/20 10:55:07;;;;;;;7.30;2.70;;;;;;;-150.27;100.00;61272.81;5273034;28;20032;-81
2022/08/20 10:57:40;;;;;;;9.95;2.78;;;;;;;-150.27;100.00;61272.81;5273616;28;20085;-83
2022/08/20 11:00:14;;;;;;;8.20;2.83;;;;;;;-150.27;100.00;61272.81;5272619;28;20047;-82
2022/08/20 11:02:45;;;;;;;10.88;4.15;;;;;;;-150.27;100.00;61272.81;5273360;28;20680;-81
2022/08/20 11:05:17;;;;;;;10.70;3.00;;;;;;;-150.27;100.00;61272.81;5273288;28;20031;-81
2022/08/20 11:07:48;;;;;;;8.52;3.10;;;;;;;-150.27;100.00;61272.81;5271995;28;20033;-82
2022/08/20 11:10:20;;;;;;;11.68;3.15;;;;;;;-150.27;100.00;61272.81;5272609;28;20126;-81
2022/08/20 11:12:52;;;;;;;15.65;3.20;;;;;;;-150.27;100.00;61272.81;5272907;28;20020;-81
2022/08/20 11:15:23;;;;;;;9.90;3.08;;;;;;;-150.27;100.00;61272.81;5272914;28;20025;-82
2022/08/20 11:17:55;;;;;;;10.80;3.20;;;;;;;-150.27;100.00;61272.81;5272714;28;20043;-81
2022/08/20 11:20:27;;;;;;;12.80;3.13;;;;;;;-150.27;100.00;61272.81;5273101;28;20036;-81
2022/08/20 11:22:59;;;;;;;9.48;2.80;;;;;;;-150.27;100.00;61272.81;5271956;28;20055;-81
2022/08/20 11:25:30;;;;;;;11.02;2.97;;;;;;;-150.27;100.00;61272.81;5272143;28;20433;-81
2022/08/20 11:28:02;;;;;;;7.65;2.60;;;;;;;-150.27;100.00;61272.81;5272547;28;20032;-81
2022/08/20 11:30:35;;;;;;;10.25;2.63;;;;;;;-150.27;100.00;61272.81;5272388;28;20473;-82